首页
METAR-TAF:

METAR-TAF

机场 :

克拉約瓦, 罗马尼亚

纬度: 44-14N, 经度: 023-52E, 海拔: 192米

当前天气观测

该预报发布于21分钟前的20:30 UTC
风速7节,风向
温度 25°C
湿度 50%
气压 1021 hPa
能见度10公里或以上

METAR: LRCV 222030Z AUTO 09007KT 9999 NCD 25/14 Q1021

时间: 23:51 (20:51 UTC)

预报

该预报发布于51分钟前的20:00 UTC
预报有效从22日的 21点(UTC)到 23日的 06点(UTC)
风速8节,风向
能见度10公里或以上
1500米以下无云,无积雨云

TAF: LRCV 222000Z 2221/2306 09008KT CAVOK

超过4000个机场的气象观测和天气预报(METAR&TAF报告)。

可查询的气象台以黄色和红色小点在地图上表示。

将鼠标移到小点上方,可查看气象台名称。

然后点击查看天气观测和预报。

如需切换地图:点击带黑十字的绿色按钮放大地图;点击带横线的绿色按钮缩小地图;或者点击绿色箭头查看邻近地区的地图。


METAR-TAF: